Nearby METAR Reports

 

PAEN - Kenai, Alaska, USA
Distance from station: ESE 2mi, 4km
Updated: Thu, 13-Aug-2020 9:53am AKDT
Overcast
Overcast
 Wind from calm
Wind: Calm
Temperature: 52°F , 11°C
Dew Point: 46°F , 8°C
Humidity: 82%
Barometer: 30.01 inHg , 1016.3 hPa
Clouds: Overcast
Visibility: 10 miles , 16 km
Cloud details: Overcast 7000 ft
2020/08/13 17:53 PAEN 131753Z 00000KT 10SM OVC070 11/08 A3001 RMK AO2 SLP162 T01110083 10111 20022 51002 $
PASX - Soldotna, Alaska, USA
Distance from station: SE 12mi, 19km
Updated: Mon, 10-Aug-2020 6:55pm AKDT
NOT Current
Partly cloudy
Partly cloudy
 Wind from WSW
Wind: WSW 10 mph , 17 km/h
Temperature: 64°F , 18°C
Dew Point: 43°F , 6°C
Humidity: 46%
Barometer: 29.90 inHg , 1012.5 hPa
Clouds: Partly cloudy
Visibility: 10 miles , 16 km
Cloud details: Partly cloudy 9000 ft
2020/08/11 02:55 PASX 110255Z 25009KT 10SM SCT090 18/06 A2990
 
PANC - Anchorage Intl, Alaska, USA
Distance from station: NE 59mi, 96km
Updated: Thu, 13-Aug-2020 9:53am AKDT
Partly cloudy
Partly cloudy
 Wind from S
Wind: S 5 mph , 7 km/h
Temperature: 57°F , 14°C
Dew Point: 48°F , 9°C
Humidity: 72%
Barometer: 30.00 inHg , 1015.9 hPa
Clouds: Partly cloudy
Visibility: 10 miles , 16 km
Cloud details: Few Clouds 3000 ft
Partly cloudy 6500 ft
Partly cloudy 20000 ft
2020/08/13 17:53 PANC 131753Z 18004KT 10SM FEW030 SCT065 SCT200 14/09 A3000 RMK AO2 SLP158 T01390094 10139 20117 53001
PALH - Anchorage/Lake H, Alaska, USA
Distance from station: NE 61mi, 99km
Updated: Thu, 13-Aug-2020 9:53am AKDT
Clear
Clear
 Wind from SW
Wind: SW 5 mph , 7 km/h
Temperature: 57°F , 14°C
Dew Point: 48°F , 9°C
Humidity: 72%
Barometer: 30.01 inHg , 1016.3 hPa
Clouds: Clear
Visibility: 10 miles , 16 km
2020/08/13 17:53 PALH 131753Z 22004KT 10SM CLR 14/09 A3001 RMK AO2 SLP162 T01440094 10144 20117 53001
 
PAHO - Homer, Alaska, USA
Distance from station: S 66mi, 106km
Updated: Thu, 13-Aug-2020 9:55am AKDT
Clear
Clear
 Wind from NE
Wind: NE 7 mph , 11 km/h
Temperature: 55°F , 13°C
Dew Point: 46°F , 8°C
Humidity: 72%
Barometer: 29.99 inHg , 1015.6 hPa
Clouds: Clear
Visibility: 10 miles , 16 km
2020/08/13 17:55 PAHO 131755Z 05006KT 10SM CLR 13/08 A2999
PAMR - Anchorage/Merril, Alaska, USA
Distance from station: NE 66mi, 106km
Updated: Thu, 13-Aug-2020 9:53am AKDT
Clear
Clear
 Wind from calm
Wind: Calm
Temperature: 59°F , 15°C
Dew Point: 48°F , 9°C
Humidity: 68%
Barometer: 30.00 inHg , 1015.9 hPa
Clouds: Clear
Visibility: 10 miles , 16 km
2020/08/13 17:53 PAMR 131753Z 00000KT 10SM CLR 15/09 A3000 RMK AO2 SLP159 T01500089 10156 20111 53001
 
PAED - Elmendorf Afb, Alaska, USA
Distance from station: NE 69mi, 110km
Updated: Thu, 13-Aug-2020 8:56am AKDT
Partly cloudy
Partly cloudy
 Wind from calm
Wind: Calm
Temperature: 57°F , 14°C
Dew Point: 50°F , 10°C
Humidity: 77%
Barometer: 29.99 inHg , 1015.6 hPa
Clouds: Partly cloudy
Visibility: 10 miles , 16 km
Cloud details: Partly cloudy 5000 ft
Partly cloudy 6000 ft
Partly cloudy 20000 ft
2020/08/13 16:56 PAED 131656Z 00000KT 10SM SCT050 SCT060 SCT200 14/10 A2999 RMK AO2A SLP151 T01380098 $
PAWD - Seward, Alaska, USA
Distance from station: ESE 71mi, 115km
Updated: Thu, 13-Aug-2020 9:53am AKDT
Clear
Clear
 Wind from N
Wind: N 5 mph , 7 km/h
Temperature: 54°F , 12°C
Dew Point: 48°F , 9°C
Humidity: 82%
Barometer: 30.00 inHg , 1015.9 hPa
Clouds: Clear
Visibility: 10 miles , 16 km
2020/08/13 17:53 PAWD 131753Z AUTO 35004KT 10SM CLR 12/09 A3000 RMK AO2 SLP159 T01220089 10122 20072 50002 TSNO
 
PASC - Deadhorse, Alaska, USA
Distance from station: ENE 670mi, 1078km
Updated: Thu, 13-Aug-2020 9:53am AKDT
Overcast
Overcast
 Wind from E
Wind: E 7 mph , 11 km/h
Temperature: 48°F , 9°C
Wind Chill: 45°F , 7°C
Dew Point: 45°F , 7°C
Humidity: 87%
Barometer: 30.04 inHg , 1017.3 hPa
Clouds: Overcast
Visibility: 10 miles , 16 km
Cloud details: Partly cloudy 2800 ft
Overcast 8000 ft
2020/08/13 17:53 PASC 131753Z 10006KT 10SM SCT028 OVC080 09/07 A3004 RMK AO2 SLP174 T00890067 10089 20056 51004
PAAD - Point Thomson, Alaska, USA
Distance from station: ENE 680mi, 1094km
Updated: Thu, 13-Aug-2020 9:55am AKDT
Overcast
Overcast
 Wind from calm
Wind: Calm
Temperature: 43°F , 6°C
Dew Point: 41°F , 5°C
Humidity: 93%
Barometer: 30.06 inHg , 1017.9 hPa
Clouds: Overcast
Visibility: 10 miles , 16 km
Cloud details: Overcast 400 ft
2020/08/13 17:55 PAAD 131755Z AUTO 00000KT 10SM OVC004 06/05 A3006 RMK AO2 T00570053 10067 20050


kenaipeople.com website

Dans Automotive

Lower Peninsula Power Sports

Freddies RoadHouse

Alaska Weather Net